Time;durP1;ratioP1;P1;durP2;ratioP2;P2;SDS_P1;SDS_P2;PMS_P1;PMS_P2;Temp;Humidity;BMP_temperature;BMP_pressure;BME280_temperature;BME280_humidity;BME280_pressure;Samples;Min_cycle;Max_cycle;Signal;HPM_P1;HPM_P2
2023/01/07 06:00:27;;;;;;;1.30;1.20;;;10.70;97.20;;;;;;1681272;29;20615;-72
2023/01/07 06:01:18;;;;;;;1.30;1.20;;;10.70;97.20;;;;;;1679863;29;20671;-73
2023/01/07 06:02:09;;;;;;;1.37;1.27;;;10.70;97.20;;;;;;1681699;29;20577;-72
2023/01/07 06:03:00;;;;;;;1.90;1.48;;;10.60;97.20;;;;;;1677629;29;20615;-72
2023/01/07 06:03:52;;;;;;;1.43;1.33;;;10.60;97.20;;;;;;1675287;29;20675;-72
2023/01/07 06:04:42;;;;;;;1.48;1.33;;;10.60;97.20;;;;;;1676121;29;20237;-72
2023/01/07 06:05:34;;;;;;;1.50;1.40;;;10.60;97.20;;;;;;1675102;29;20688;-73
2023/01/07 06:06:25;;;;;;;1.38;1.27;;;10.60;97.20;;;;;;1674661;29;20202;-72
2023/01/07 06:07:16;;;;;;;1.50;1.40;;;10.60;97.20;;;;;;1674994;29;20198;-72
2023/01/07 06:08:07;;;;;;;2.97;1.30;;;10.60;97.20;;;;;;1681433;29;20583;-72
2023/01/07 06:08:59;;;;;;;1.40;1.27;;;10.60;97.20;;;;;;1681259;29;20202;-72
2023/01/07 06:09:50;;;;;;;1.75;1.60;;;10.60;97.20;;;;;;1676414;29;20479;-72
2023/01/07 06:10:43;;;;;;;1.50;1.40;;;10.60;97.20;;;;;;1674960;29;20237;-72
2023/01/07 06:11:33;;;;;;;1.30;1.20;;;10.60;97.20;;;;;;1674953;29;20214;-72
2023/01/07 06:12:25;;;;;;;2.50;1.30;;;10.60;97.20;;;;;;1675018;29;20285;-72
2023/01/07 06:13:16;;;;;;;1.40;1.30;;;10.60;97.20;;;;;;1675207;29;20218;-73
2023/01/07 06:14:07;;;;;;;1.30;1.20;;;10.60;97.20;;;;;;1675339;29;20206;-72
2023/01/07 06:14:58;;;;;;;1.40;1.30;;;10.60;97.20;;;;;;1675168;29;20240;-73
2023/01/07 06:15:51;;;;;;;1.30;1.20;;;10.60;97.20;;;;;;1675303;29;20210;-73
2023/01/07 06:16:42;;;;;;;1.10;1.00;;;10.60;97.20;;;;;;1674994;29;20677;-72
2023/01/07 06:17:34;;;;;;;1.43;1.33;;;10.50;97.20;;;;;;1675243;29;20679;-72
2023/01/07 06:18:24;;;;;;;3.42;1.48;;;10.50;97.20;;;;;;1675094;29;20205;-73
2023/01/07 06:19:16;;;;;;;1.50;1.40;;;10.50;97.20;;;;;;1674708;29;20213;-72
2023/01/07 06:20:08;;;;;;;1.35;1.17;;;10.50;97.20;;;;;;1674808;29;20213;-73
2023/01/07 06:21:00;;;;;;;1.80;1.45;;;10.50;97.20;;;;;;1674352;29;20229;-72
2023/01/07 06:21:51;;;;;;;1.33;1.23;;;10.50;97.20;;;;;;1675113;29;20680;-72
2023/01/07 06:22:42;;;;;;;1.60;1.50;;;10.50;97.20;;;;;;1675132;29;20579;-72
2023/01/07 06:23:33;;;;;;;1.38;1.27;;;10.50;97.20;;;;;;1676134;29;20214;-72
2023/01/07 06:24:25;;;;;;;1.57;1.13;;;10.40;97.20;;;;;;1675253;29;20209;-73
2023/01/07 06:25:16;;;;;;;1.42;1.10;;;10.40;97.20;;;;;;1675156;29;20213;-73
2023/01/07 06:26:07;;;;;;;1.40;1.30;;;10.40;97.20;;;;;;1675114;29;20491;-72
2023/01/07 06:26:58;;;;;;;1.40;1.30;;;10.40;97.20;;;;;;1674832;29;20467;-73
2023/01/07 06:27:50;;;;;;;1.40;1.17;;;10.40;97.20;;;;;;1675215;29;20691;-72
2023/01/07 06:28:41;;;;;;;1.85;1.30;;;10.40;97.20;;;;;;1674617;29;20672;-72
2023/01/07 06:29:32;;;;;;;1.47;1.23;;;10.40;97.20;;;;;;1675168;29;20657;-72
2023/01/07 06:30:23;;;;;;;1.50;1.40;;;10.40;97.20;;;;;;1674680;29;20213;-72
2023/01/07 06:31:16;;;;;;;1.53;1.40;;;10.40;97.20;;;;;;1675332;29;20190;-72
2023/01/07 06:32:07;;;;;;;1.83;1.63;;;10.40;97.20;;;;;;1675452;29;20830;-72
2023/01/07 06:32:59;;;;;;;1.90;1.70;;;10.40;97.20;;;;;;1675023;29;20220;-72
2023/01/07 06:33:50;;;;;;;1.98;1.75;;;10.40;97.20;;;;;;1675091;29;20297;-73
2023/01/07 06:34:42;;;;;;;1.67;1.57;;;10.40;97.20;;;;;;1675086;29;20206;-72
2023/01/07 06:35:32;;;;;;;1.88;1.30;;;10.40;97.20;;;;;;1676062;29;20206;-72
2023/01/07 06:36:24;;;;;;;1.40;1.27;;;10.40;97.20;;;;;;1678820;29;20221;-72
2023/01/07 06:37:16;;;;;;;2.28;1.30;;;10.40;97.20;;;;;;1680712;29;20494;-72
2023/01/07 06:38:08;;;;;;;1.70;1.60;;;10.40;97.20;;;;;;1681153;29;20281;-72
2023/01/07 06:38:59;;;;;;;1.60;1.50;;;10.40;97.20;;;;;;1680999;29;20687;-72
2023/01/07 06:39:50;;;;;;;1.40;1.30;;;10.40;97.20;;;;;;1679908;29;20566;-73
2023/01/07 06:40:43;;;;;;;1.42;1.33;;;10.40;97.20;;;;;;1675392;29;20236;-73
2023/01/07 06:41:35;;;;;;;1.75;1.25;;;10.40;97.20;;;;;;1675010;29;20217;-72
2023/01/07 06:42:26;;;;;;;1.33;1.23;;;10.40;97.20;;;;;;1675086;29;20305;-73
2023/01/07 06:43:17;;;;;;;1.33;1.02;;;10.40;97.20;;;;;;1674950;29;20202;-72
2023/01/07 06:44:08;;;;;;;1.73;1.30;;;10.40;97.20;;;;;;1675145;29;20209;-72
2023/01/07 06:45:00;;;;;;;1.33;1.17;;;10.40;97.20;;;;;;1675177;29;20788;-73
2023/01/07 06:45:50;;;;;;;1.98;1.20;;;10.40;97.20;;;;;;1675148;29;20206;-73
2023/01/07 06:46:44;;;;;;;1.87;1.40;;;10.40;97.20;;;;;;1674754;29;20201;-73
2023/01/07 06:47:34;;;;;;;1.48;1.27;;;10.40;97.20;;;;;;1675029;29;20595;-73
2023/01/07 06:48:26;;;;;;;3.70;1.50;;;10.40;97.20;;;;;;1674621;29;20642;-72
2023/01/07 06:49:17;;;;;;;1.45;1.10;;;10.30;97.20;;;;;;1674432;29;20213;-72
2023/01/07 06:50:09;;;;;;;1.30;1.20;;;10.30;97.20;;;;;;1674811;29;20206;-72
2023/01/07 06:51:00;;;;;;;1.75;1.52;;;10.30;97.20;;;;;;1674893;29;20202;-72
2023/01/07 06:51:52;;;;;;;1.37;1.10;;;10.30;97.20;;;;;;1675045;29;20198;-72
2023/01/07 06:52:43;;;;;;;1.58;1.48;;;10.30;97.20;;;;;;1674997;29;20210;-72
2023/01/07 06:53:34;;;;;;;1.67;1.37;;;10.30;97.20;;;;;;1674985;29;20212;-72
2023/01/07 06:54:25;;;;;;;1.40;1.30;;;10.30;97.20;;;;;;1674913;29;20453;-73
2023/01/07 06:55:17;;;;;;;1.40;1.30;;;10.20;97.20;;;;;;1668620;29;20217;-73
2023/01/07 06:56:08;;;;;;;1.42;1.33;;;10.20;97.20;;;;;;1668676;29;20690;-72
2023/01/07 06:57:00;;;;;;;1.63;1.50;;;10.20;97.20;;;;;;1668273;29;20564;-73
2023/01/07 06:57:50;;;;;;;1.48;1.38;;;10.20;97.20;;;;;;1668605;29;20451;-72
2023/01/07 06:58:42;;;;;;;1.70;1.60;;;10.20;97.20;;;;;;1668226;29;20220;-73
2023/01/07 06:59:33;;;;;;;1.40;1.30;;;10.20;97.20;;;;;;1671690;29;20206;-72
2023/01/07 07:00:24;;;;;;;1.47;1.37;;;10.20;97.20;;;;;;1674796;29;20220;-72
2023/01/07 07:01:15;;;;;;;1.23;1.13;;;10.20;97.20;;;;;;1674899;29;20242;-72
2023/01/07 07:02:17;;;;;;;1.43;1.33;;;10.20;97.20;;;;;;1674955;29;20209;-73
2023/01/07 07:03:08;;;;;;;1.65;1.55;;;10.20;97.20;;;;;;1675055;29;20199;-73
2023/01/07 07:03:59;;;;;;;3.15;1.45;;;10.20;97.20;;;;;;1674829;29;20229;-72
2023/01/07 07:04:50;;;;;;;1.50;1.40;;;10.20;97.20;;;;;;1681396;29;20212;-72
2023/01/07 07:05:42;;;;;;;1.60;1.50;;;10.20;97.20;;;;;;1681269;29;20236;-72
2023/01/07 07:06:33;;;;;;;1.77;1.67;;;10.20;97.20;;;;;;1681360;29;20228;-73
2023/01/07 07:07:25;;;;;;;1.63;1.40;;;10.20;97.20;;;;;;1681253;29;20284;-72
2023/01/07 07:08:16;;;;;;;1.27;1.17;;;10.30;97.20;;;;;;1681593;29;20594;-72
2023/01/07 07:09:07;;;;;;;1.40;1.30;;;10.30;97.20;;;;;;1681133;29;20584;-72
2023/01/07 07:09:58;;;;;;;2.10;1.23;;;10.30;97.20;;;;;;1681602;29;20205;-73
2023/01/07 07:10:50;;;;;;;1.40;1.30;;;10.30;97.20;;;;;;1676457;29;20221;-73
2023/01/07 07:11:40;;;;;;;1.30;1.17;;;10.30;97.20;;;;;;1675350;29;20198;-73
2023/01/07 07:12:32;;;;;;;1.40;1.30;;;10.30;97.20;;;;;;1675076;29;20202;-73
2023/01/07 07:13:23;;;;;;;1.30;1.20;;;10.30;97.20;;;;;;1675098;29;20216;-73
2023/01/07 07:14:15;;;;;;;1.10;1.00;;;10.30;97.20;;;;;;1675377;29;20216;-73
2023/01/07 07:15:07;;;;;;;1.38;1.27;;;10.30;97.20;;;;;;1675303;29;20585;-73
2023/01/07 07:15:59;;;;;;;1.42;1.10;;;10.30;97.20;;;;;;1675101;29;20206;-73
2023/01/07 07:16:50;;;;;;;1.65;1.55;;;10.30;97.20;;;;;;1674563;29;20224;-73
2023/01/07 07:17:43;;;;;;;1.30;1.20;;;10.20;97.20;;;;;;1674890;29;20201;-73
2023/01/07 07:18:34;;;;;;;1.10;1.00;;;10.30;97.20;;;;;;1674500;29;20272;-73
2023/01/07 07:19:25;;;;;;;1.00;0.90;;;10.30;97.20;;;;;;1674986;29;20206;-74
2023/01/07 07:20:16;;;;;;;1.17;1.08;;;10.30;97.20;;;;;;1674999;29;20212;-73
2023/01/07 07:21:08;;;;;;;1.43;1.33;;;10.30;97.20;;;;;;1674976;29;20205;-73
2023/01/07 07:21:59;;;;;;;1.08;0.98;;;10.30;97.20;;;;;;1674735;29;20466;-73
2023/01/07 07:22:50;;;;;;;3.60;1.30;;;10.30;97.20;;;;;;1674864;29;20293;-73
2023/01/07 07:23:41;;;;;;;2.35;1.00;;;10.30;97.20;;;;;;1674783;29;20461;-73
2023/01/07 07:24:33;;;;;;;1.20;1.10;;;10.30;97.20;;;;;;1674877;29;20217;-73
2023/01/07 07:25:24;;;;;;;1.40;1.30;;;10.30;97.20;;;;;;1681078;29;20228;-73
2023/01/07 07:26:15;;;;;;;1.20;1.10;;;10.30;97.20;;;;;;1677631;29;20208;-73
2023/01/07 07:27:06;;;;;;;1.20;1.10;;;10.30;97.20;;;;;;1674524;29;20202;-73
2023/01/07 07:27:58;;;;;;;2.03;1.10;;;10.40;97.20;;;;;;1674909;29;20210;-73
2023/01/07 07:28:48;;;;;;;1.27;1.17;;;10.40;97.20;;;;;;1674318;29;20205;-73
2023/01/07 07:29:40;;;;;;;1.07;0.97;;;10.40;97.20;;;;;;1674883;29;20206;-72
2023/01/07 07:30:31;;;;;;;1.15;1.05;;;10.40;97.20;;;;;;1674606;29;20233;-74
2023/01/07 07:31:22;;;;;;;3.23;1.07;;;10.40;97.20;;;;;;1674680;29;20214;-74
2023/01/07 07:32:13;;;;;;;1.10;1.00;;;10.40;97.20;;;;;;1674430;29;20237;-74
2023/01/07 07:33:06;;;;;;;1.30;1.00;;;10.40;97.20;;;;;;1675730;29;20209;-74
2023/01/07 07:33:57;;;;;;;1.02;0.93;;;10.40;97.20;;;;;;1674721;29;20198;-74
2023/01/07 07:34:48;;;;;;;1.30;1.20;;;10.40;97.20;;;;;;1674515;29;20205;-74
2023/01/07 07:35:39;;;;;;;1.05;0.90;;;10.40;97.20;;;;;;1674709;29;20214;-74
2023/01/07 07:36:31;;;;;;;1.43;1.27;;;10.40;97.20;;;;;;1674344;29;20202;-74
2023/01/07 07:37:22;;;;;;;1.20;1.10;;;10.40;97.20;;;;;;1674516;29;20461;-73
2023/01/07 07:38:16;;;;;;;1.37;1.20;;;10.40;97.20;;;;;;1674797;29;20202;-73
2023/01/07 07:39:07;;;;;;;1.20;1.10;;;10.40;97.20;;;;;;1674145;29;20205;-74
2023/01/07 07:39:58;;;;;;;1.20;1.00;;;10.40;97.20;;;;;;1674632;29;20210;-73
2023/01/07 07:40:49;;;;;;;1.40;0.90;;;10.40;97.20;;;;;;1674671;29;20232;-73
2023/01/07 07:41:41;;;;;;;1.40;1.30;;;10.40;97.20;;;;;;1674799;29;20209;-73
2023/01/07 07:42:32;;;;;;;1.20;1.10;;;10.50;97.20;;;;;;1674816;29;20210;-73
2023/01/07 07:43:24;;;;;;;1.23;1.13;;;10.50;97.20;;;;;;1674721;29;20209;-73
2023/01/07 07:44:14;;;;;;;1.10;1.00;;;10.50;97.20;;;;;;1674683;29;20214;-73
2023/01/07 07:45:08;;;;;;;1.43;1.33;;;10.50;97.20;;;;;;1674727;29;20210;-73
2023/01/07 07:45:58;;;;;;;0.90;0.90;;;10.50;97.20;;;;;;1674718;29;20744;-73
2023/01/07 07:46:50;;;;;;;1.47;1.20;;;10.50;97.20;;;;;;1674631;29;20672;-73
2023/01/07 07:47:41;;;;;;;1.40;1.05;;;10.50;97.20;;;;;;1674716;29;20217;-73
2023/01/07 07:48:34;;;;;;;1.60;1.13;;;10.50;97.20;;;;;;1674812;29;20216;-73
2023/01/07 07:49:25;;;;;;;1.20;1.10;;;10.60;97.20;;;;;;1674228;29;20198;-72
2023/01/07 07:50:16;;;;;;;1.00;0.90;;;10.60;97.20;;;;;;1674295;29;20206;-73
2023/01/07 07:51:07;;;;;;;1.20;1.10;;;10.60;97.20;;;;;;1674704;29;20399;-73
2023/01/07 07:51:59;;;;;;;1.30;1.20;;;10.60;97.20;;;;;;1675421;29;20206;-73
2023/01/07 07:52:50;;;;;;;1.25;1.15;;;10.60;97.20;;;;;;1679557;29;20225;-73
2023/01/07 07:53:41;;;;;;;1.63;1.50;;;10.60;97.20;;;;;;1674484;29;20197;-73
2023/01/07 07:54:32;;;;;;;1.20;1.10;;;10.60;97.20;;;;;;1674778;29;20210;-73
2023/01/07 07:55:24;;;;;;;1.27;1.00;;;10.60;97.20;;;;;;1674733;29;20209;-73
2023/01/07 07:56:15;;;;;;;1.20;1.10;;;10.60;97.20;;;;;;1674717;29;20991;-73
2023/01/07 07:57:06;;;;;;;1.67;1.13;;;10.60;97.20;;;;;;1674479;29;20572;-73
2023/01/07 07:57:57;;;;;;;1.30;1.20;;;10.60;97.20;;;;;;1674748;29;20213;-73
2023/01/07 07:58:49;;;;;;;1.30;1.10;;;10.60;97.20;;;;;;1674132;29;20711;-74
2023/01/07 07:59:40;;;;;;;1.10;1.00;;;10.60;97.20;;;;;;1674593;29;20213;-74
2023/01/07 08:00:32;;;;;;;1.27;1.02;;;10.70;97.20;;;;;;1674585;29;20218;-73
2023/01/07 08:01:23;;;;;;;1.13;1.02;;;10.60;97.20;;;;;;1674686;29;20205;-73
2023/01/07 08:02:17;;;;;;;1.63;1.00;;;10.70;97.20;;;;;;1674821;29;20224;-73
2023/01/07 08:03:08;;;;;;;1.25;1.15;;;10.70;97.20;;;;;;1674468;29;20232;-72
2023/01/07 08:04:02;;;;;;;1.20;1.10;;;10.70;97.20;;;;;;1674567;29;20732;-73
2023/01/07 08:04:52;;;;;;;1.20;1.10;;;10.70;97.20;;;;;;1677092;29;20221;-73
2023/01/07 08:05:45;;;;;;;1.13;1.03;;;10.70;97.20;;;;;;1681139;29;20286;-73
2023/01/07 08:06:35;;;;;;;1.15;1.05;;;10.70;97.20;;;;;;1680347;29;20221;-73
2023/01/07 08:07:27;;;;;;;1.40;1.00;;;10.70;97.20;;;;;;1674081;29;20214;-73
2023/01/07 08:08:18;;;;;;;1.70;1.15;;;10.70;97.20;;;;;;1674518;29;20237;-73
2023/01/07 08:09:09;;;;;;;1.47;1.20;;;10.70;97.20;;;;;;1675628;29;20202;-73
2023/01/07 08:10:00;;;;;;;1.10;1.00;;;10.70;97.20;;;;;;1680959;29;20212;-73
2023/01/07 08:10:54;;;;;;;1.00;0.90;;;10.70;97.20;;;;;;1678385;29;20221;-74
2023/01/07 08:11:45;;;;;;;1.17;1.08;;;10.70;97.20;;;;;;1674722;29;20206;-73
2023/01/07 08:12:37;;;;;;;1.30;1.10;;;10.70;97.20;;;;;;1674609;29;20893;-73
2023/01/07 08:13:29;;;;;;;1.20;1.10;;;10.80;97.20;;;;;;1674674;29;20626;-73
2023/01/07 08:14:21;;;;;;;1.10;1.00;;;10.80;97.20;;;;;;1674595;29;20688;-73
2023/01/07 08:15:12;;;;;;;1.15;0.90;;;10.80;97.20;;;;;;1674688;29;20209;-73
2023/01/07 08:16:04;;;;;;;1.00;0.90;;;10.80;97.20;;;;;;1674653;29;20210;-73
2023/01/07 08:16:54;;;;;;;1.00;0.80;;;10.80;97.20;;;;;;1674530;29;20455;-73
2023/01/07 08:17:46;;;;;;;2.50;0.90;;;10.80;97.20;;;;;;1674579;29;20232;-73
2023/01/07 08:18:38;;;;;;;1.30;1.20;;;10.80;97.20;;;;;;1674106;29;20257;-73
2023/01/07 08:19:31;;;;;;;1.70;1.60;;;10.80;97.20;;;;;;1674731;29;20293;-73
2023/01/07 08:20:22;;;;;;;1.67;1.58;;;10.80;97.20;;;;;;1674366;29;20206;-73
2023/01/07 08:21:14;;;;;;;1.80;1.70;;;10.80;97.20;;;;;;1674648;29;20208;-74
2023/01/07 08:22:04;;;;;;;2.10;2.00;;;10.80;97.20;;;;;;1674630;29;20214;-73
2023/01/07 08:22:59;;;;;;;1.83;1.73;;;10.80;97.20;;;;;;1674763;29;20288;-73
2023/01/07 08:23:49;;;;;;;1.55;1.45;;;10.80;97.20;;;;;;1674396;29;20209;-73
2023/01/07 08:24:41;;;;;;;2.60;2.40;;;10.80;97.20;;;;;;1674572;29;20216;-73
2023/01/07 08:25:33;;;;;;;2.88;2.67;;;10.80;97.20;;;;;;1674618;29;20210;-74
2023/01/07 08:26:25;;;;;;;1.80;1.70;;;10.80;97.20;;;;;;1674639;29;20217;-74
2023/01/07 08:27:16;;;;;;;1.63;1.52;;;10.80;97.20;;;;;;1674408;29;20214;-73
2023/01/07 08:28:09;;;;;;;1.37;1.27;;;10.80;97.20;;;;;;1674693;29;20206;-74
2023/01/07 08:28:59;;;;;;;1.52;1.42;;;10.80;97.20;;;;;;1674055;29;20213;-74
2023/01/07 08:29:51;;;;;;;1.37;1.27;;;10.80;97.20;;;;;;1674527;29;20288;-73
2023/01/07 08:30:42;;;;;;;3.10;1.25;;;10.80;97.20;;;;;;1674436;29;20238;-74
2023/01/07 08:31:33;;;;;;;1.37;1.27;;;10.90;97.20;;;;;;1674742;29;20210;-73
2023/01/07 08:32:24;;;;;;;1.30;1.20;;;10.80;97.20;;;;;;1674519;29;20249;-73
2023/01/07 08:33:16;;;;;;;1.20;1.10;;;10.90;97.20;;;;;;1674612;29;20214;-74
2023/01/07 08:34:07;;;;;;;1.30;1.20;;;10.80;97.20;;;;;;1674589;29;20693;-74
2023/01/07 08:35:00;;;;;;;1.00;0.90;;;10.90;97.20;;;;;;1674607;29;20669;-74
2023/01/07 08:35:51;;;;;;;1.10;0.98;;;10.90;97.20;;;;;;1673978;29;20198;-74
2023/01/07 08:36:42;;;;;;;1.50;1.40;;;10.90;97.20;;;;;;1673578;29;20252;-73
2023/01/07 08:37:33;;;;;;;1.08;0.98;;;10.90;97.20;;;;;;1675681;29;20586;-73
2023/01/07 08:38:27;;;;;;;1.57;1.30;;;10.90;97.20;;;;;;1680942;29;20209;-73
2023/01/07 08:39:19;;;;;;;1.00;0.90;;;10.90;97.20;;;;;;1680494;29;20221;-72
2023/01/07 08:40:11;;;;;;;1.10;1.00;;;10.90;97.20;;;;;;1680892;29;20588;-72
2023/01/07 08:41:03;;;;;;;1.20;1.10;;;10.90;97.20;;;;;;1681060;29;20253;-74
2023/01/07 08:41:54;;;;;;;1.40;1.13;;;10.90;97.20;;;;;;1677693;29;20933;-73
2023/01/07 08:42:46;;;;;;;1.30;1.20;;;10.90;97.20;;;;;;1674729;29;20209;-73
2023/01/07 08:43:37;;;;;;;1.40;1.30;;;10.90;97.20;;;;;;1674024;29;20519;-72
2023/01/07 08:44:29;;;;;;;3.08;1.38;;;10.90;97.20;;;;;;1668630;29;20237;-74
2023/01/07 08:45:20;;;;;;;1.55;1.38;;;10.90;97.20;;;;;;1673044;29;20217;-73
2023/01/07 08:46:11;;;;;;;1.13;1.03;;;10.90;97.20;;;;;;1675738;29;20665;-73
2023/01/07 08:47:02;;;;;;;2.85;1.33;;;10.90;97.20;;;;;;1675467;29;20213;-73
2023/01/07 08:47:56;;;;;;;1.30;1.20;;;10.90;97.20;;;;;;1675873;29;20202;-73
2023/01/07 08:48:47;;;;;;;1.25;1.15;;;10.90;97.20;;;;;;1674768;29;20269;-72
2023/01/07 08:49:38;;;;;;;1.43;1.33;;;10.90;97.20;;;;;;1675785;29;20218;-72
2023/01/07 08:50:32;;;;;;;1.20;1.10;;;10.90;97.20;;;;;;1675648;29;20229;-73
2023/01/07 08:51:24;;;;;;;1.20;1.10;;;11.00;97.20;;;;;;1675769;29;20257;-73
2023/01/07 08:52:14;;;;;;;1.38;1.27;;;11.00;97.20;;;;;;1675606;29;20644;-73
2023/01/07 08:53:06;;;;;;;1.20;1.10;;;11.00;97.20;;;;;;1675800;29;20198;-74
2023/01/07 08:53:58;;;;;;;1.13;1.02;;;11.00;97.20;;;;;;1677998;29;20202;-73
2023/01/07 08:54:49;;;;;;;1.85;1.45;;;11.00;97.20;;;;;;1682152;29;20209;-73
2023/01/07 08:55:41;;;;;;;1.55;1.20;;;11.00;97.20;;;;;;1682137;29;20201;-73
2023/01/07 08:56:32;;;;;;;1.20;1.10;;;11.00;97.20;;;;;;1682224;29;20213;-74
2023/01/07 08:57:24;;;;;;;1.35;1.25;;;11.10;97.20;;;;;;1681949;29;20212;-74
2023/01/07 08:58:14;;;;;;;1.38;1.27;;;11.10;97.20;;;;;;1682260;29;20715;-74
2023/01/07 08:59:06;;;;;;;1.30;1.20;;;11.10;97.20;;;;;;1681546;29;20774;-74
2023/01/07 08:59:57;;;;;;;1.60;1.50;;;11.10;97.20;;;;;;1681937;29;20209;-74
2023/01/07 09:00:49;;;;;;;1.57;1.47;;;11.10;97.20;;;;;;1682016;29;20217;-71
2023/01/07 09:01:39;;;;;;;1.65;1.55;;;11.20;97.20;;;;;;1676042;29;20662;-71
2023/01/07 09:02:31;;;;;;;1.40;1.30;;;11.20;97.20;;;;;;1674161;29;20649;-73
2023/01/07 09:03:22;;;;;;;1.40;1.30;;;11.30;97.20;;;;;;1674141;29;20202;-72
2023/01/07 09:04:13;;;;;;;1.30;1.20;;;11.30;97.20;;;;;;1674067;29;20202;-72
2023/01/07 09:05:05;;;;;;;1.50;1.40;;;11.40;97.20;;;;;;1673628;29;20581;-73
2023/01/07 09:05:59;;;;;;;1.67;1.40;;;11.40;97.20;;;;;;1673790;29;20653;-72
2023/01/07 09:06:49;;;;;;;1.45;1.35;;;11.40;97.20;;;;;;1673871;29;20236;-73
2023/01/07 09:07:41;;;;;;;1.80;1.63;;;11.50;97.20;;;;;;1674046;29;20204;-73
2023/01/07 09:08:32;;;;;;;1.85;1.75;;;11.50;97.20;;;;;;1674700;29;20206;-73
2023/01/07 09:09:23;;;;;;;1.90;1.80;;;11.60;97.20;;;;;;1671522;29;20208;-72
2023/01/07 09:10:14;;;;;;;1.90;1.80;;;11.60;97.20;;;;;;1673523;29;20209;-73
2023/01/07 09:11:06;;;;;;;2.03;1.83;;;11.60;97.20;;;;;;1673926;29;20208;-72
2023/01/07 09:11:57;;;;;;;2.10;1.88;;;11.70;97.20;;;;;;1673564;29;20214;-72
2023/01/07 09:12:48;;;;;;;1.97;1.83;;;11.70;97.20;;;;;;1673282;29;20198;-72
2023/01/07 09:13:39;;;;;;;2.03;1.83;;;11.70;97.20;;;;;;1673155;29;20202;-72
2023/01/07 09:14:31;;;;;;;2.43;2.10;;;11.80;97.20;;;;;;1673272;29;20205;-72
2023/01/07 09:15:22;;;;;;;1.90;1.80;;;11.80;97.20;;;;;;1672994;29;20202;-72
2023/01/07 09:16:13;;;;;;;2.17;1.97;;;11.80;97.20;;;;;;1673438;29;20216;-72
2023/01/07 09:17:04;;;;;;;2.10;1.90;;;11.90;97.20;;;;;;1673713;29;20213;-72
2023/01/07 09:17:56;;;;;;;1.90;1.67;;;11.90;97.20;;;;;;1673389;29;20216;-72
2023/01/07 09:18:47;;;;;;;2.00;1.90;;;12.00;97.20;;;;;;1672434;29;20198;-72
2023/01/07 09:19:38;;;;;;;1.87;1.77;;;12.00;97.20;;;;;;1673164;29;20206;-72
2023/01/07 09:20:29;;;;;;;4.57;2.15;;;12.00;97.20;;;;;;1672950;29;20233;-72
2023/01/07 09:21:22;;;;;;;2.15;1.95;;;12.00;97.20;;;;;;1673013;29;20550;-72
2023/01/07 09:22:13;;;;;;;1.85;1.75;;;12.00;97.20;;;;;;1673354;29;20226;-72
2023/01/07 09:23:05;;;;;;;1.93;1.70;;;12.00;97.20;;;;;;1673249;29;20205;-72
2023/01/07 09:23:56;;;;;;;1.67;1.45;;;12.00;97.20;;;;;;1672996;29;20248;-72
2023/01/07 09:24:47;;;;;;;2.30;2.10;;;12.00;97.20;;;;;;1673166;29;20205;-72
2023/01/07 09:25:38;;;;;;;2.65;2.20;;;11.90;97.20;;;;;;1673129;29;20206;-73
2023/01/07 09:26:30;;;;;;;2.47;2.27;;;11.90;97.20;;;;;;1673695;29;20212;-72
2023/01/07 09:27:21;;;;;;;2.38;2.13;;;11.90;97.20;;;;;;1673064;29;20222;-72
2023/01/07 09:28:13;;;;;;;2.35;2.15;;;11.90;97.20;;;;;;1673559;29;20198;-72
2023/01/07 09:29:04;;;;;;;2.40;2.20;;;12.00;97.20;;;;;;1673363;29;20194;-72
2023/01/07 09:29:57;;;;;;;2.53;2.33;;;12.10;97.20;;;;;;1673978;29;20210;-72
2023/01/07 09:30:48;;;;;;;2.30;2.20;;;12.10;97.20;;;;;;1672811;29;20236;-72
2023/01/07 09:31:40;;;;;;;2.47;2.27;;;12.10;97.20;;;;;;1673922;29;20202;-72
2023/01/07 09:32:30;;;;;;;2.50;2.30;;;12.10;97.20;;;;;;1673976;29;20209;-72
2023/01/07 09:33:22;;;;;;;3.10;2.80;;;12.20;97.20;;;;;;1674006;29;20194;-72
2023/01/07 09:34:13;;;;;;;3.55;2.97;;;12.30;97.20;;;;;;1674236;29;20221;-72
2023/01/07 09:35:06;;;;;;;3.47;3.17;;;12.40;97.20;;;;;;1674510;29;20198;-72
2023/01/07 09:35:56;;;;;;;2.95;2.75;;;12.50;97.20;;;;;;1674281;29;20210;-72
2023/01/07 09:36:49;;;;;;;2.63;2.43;;;12.60;97.20;;;;;;1673360;29;20202;-72
2023/01/07 09:37:41;;;;;;;2.90;2.60;;;12.70;97.20;;;;;;1674003;29;20205;-72
2023/01/07 09:38:32;;;;;;;2.97;2.78;;;12.90;97.20;;;;;;1674227;29;20241;-72
2023/01/07 09:39:23;;;;;;;2.83;2.63;;;13.00;97.20;;;;;;1673344;29;20232;-72
2023/01/07 09:40:22;;;;;;;2.30;2.10;;;13.10;97.20;;;;;;1673601;29;20202;-72
2023/01/07 09:41:23;;;;;;;3.30;3.00;;;13.30;97.20;;;;;;1673694;29;20206;-72
2023/01/07 09:42:25;;;;;;;3.58;3.28;;;13.70;97.20;;;;;;1673595;29;20200;-72
2023/01/07 09:43:21;;;;;;;4.28;2.70;;;14.70;97.20;;;;;;1673778;29;20360;-73
2023/01/07 09:44:21;;;;;;;4.35;3.65;;;15.60;97.20;;;;;;1672857;29;20194;-72
2023/01/07 09:45:16;;;;;;;3.63;3.33;;;16.10;97.20;;;;;;1673719;29;20218;-72
2023/01/07 09:46:11;;;;;;;4.38;2.72;;;16.60;97.20;;;;;;1673775;29;20210;-72
2023/01/07 09:47:04;;;;;;;3.40;3.10;;;16.70;97.20;;;;;;1673457;29;20217;-72
2023/01/07 09:47:58;;;;;;;3.10;2.80;;;16.70;97.20;;;;;;1673707;29;20237;-72
2023/01/07 09:48:55;;;;;;;3.08;2.88;;;16.50;97.20;;;;;;1672931;29;20232;-72
2023/01/07 09:49:52;;;;;;;3.55;3.25;;;16.30;97.20;;;;;;1673726;29;20633;-71
2023/01/07 09:50:48;;;;;;;3.53;3.20;;;16.00;97.20;;;;;;1673866;29;20257;-71
2023/01/07 09:51:44;;;;;;;3.92;3.63;;;15.80;97.20;;;;;;1673627;29;20194;-71
2023/01/07 09:52:40;;;;;;;3.78;3.47;;;15.70;97.20;;;;;;1674118;29;20215;-71
2023/01/07 09:53:35;;;;;;;4.22;3.83;;;15.80;97.20;;;;;;1674023;29;20657;-71
2023/01/07 09:54:30;;;;;;;3.50;3.20;;;16.20;97.20;;;;;;1673511;29;20676;-71
2023/01/07 09:55:25;;;;;;;4.00;3.70;;;16.20;97.20;;;;;;1673254;29;20210;-71
2023/01/07 09:56:21;;;;;;;4.22;3.75;;;16.80;97.20;;;;;;1673563;29;20202;-71
2023/01/07 09:57:16;;;;;;;4.40;4.00;;;18.30;97.20;;;;;;1673369;29;20569;-71
2023/01/07 09:58:12;;;;;;;4.20;3.90;;;19.50;97.20;;;;;;1673269;29;20206;-71
2023/01/07 09:59:05;;;;;;;4.80;4.40;;;20.60;97.20;;;;;;1672805;29;20629;-71
2023/01/07 09:59:56;;;;;;;5.43;4.90;;;22.10;97.20;;;;;;1673595;29;20221;-72
2023/01/07 10:00:57;;;;;;;4.30;4.00;;;23.50;97.20;;;;;;1672222;29;20309;-72
2023/01/07 10:01:53;;;;;;;3.80;3.50;;;25.00;97.20;;;;;;1673971;29;20443;-72
2023/01/07 10:03:03;;;;;;;3.63;3.33;;;26.40;97.20;;;;;;1673569;29;20620;-72
2023/01/07 10:04:18;;;;;;;3.47;3.17;;;27.80;97.20;;;;;;1674078;29;20201;-72
2023/01/07 10:05:25;;;;;;;4.05;3.65;;;29.50;96.50;;;;;;1673690;29;20236;-72
2023/01/07 10:06:24;;;;;;;3.70;3.40;;;30.60;92.40;;;;;;1673597;29;20194;-72
2023/01/07 10:07:33;;;;;;;3.70;3.40;;;31.50;90.40;;;;;;1673890;29;20202;-73
2023/01/07 10:08:35;;;;;;;4.00;3.70;;;32.00;87.90;;;;;;1673713;29;20255;-72
2023/01/07 10:09:41;;;;;;;3.88;3.58;;;32.70;85.40;;;;;;1673618;29;20198;-72
2023/01/07 10:10:44;;;;;;;3.88;3.58;;;33.10;82.00;;;;;;1673490;29;20254;-72
2023/01/07 10:11:44;;;;;;;3.92;3.53;;;33.10;81.80;;;;;;1673778;29;20477;-72
2023/01/07 10:12:42;;;;;;;4.63;4.22;;;33.40;81.10;;;;;;1673949;29;20190;-73
2023/01/07 10:13:49;;;;;;;4.95;4.55;;;33.70;80.80;;;;;;1673532;29;20199;-73
2023/01/07 10:14:57;;;;;;;4.40;4.00;;;34.00;79.10;;;;;;1673715;29;20650;-73
2023/01/07 10:16:01;;;;;;;4.60;4.20;;;34.20;78.80;;;;;;1673824;29;20205;-73
2023/01/07 10:16:59;;;;;;;4.28;3.88;;;34.80;78.10;;;;;;1673518;29;20705;-73
2023/01/07 10:18:07;;;;;;;4.68;4.28;;;35.20;77.10;;;;;;1673525;29;20225;-73
2023/01/07 10:19:04;;;;;;;4.50;4.10;;;35.60;76.10;;;;;;1673125;29;20292;-73
2023/01/07 10:20:01;;;;;;;4.57;4.15;;;36.00;75.50;;;;;;1673350;29;20674;-73
2023/01/07 10:21:03;;;;;;;4.50;4.15;;;36.50;75.10;;;;;;1673721;29;21739;-73
2023/01/07 10:22:01;;;;;;;3.65;3.35;;;36.90;73.90;;;;;;1673919;29;20206;-73
2023/01/07 10:22:56;;;;;;;3.60;3.30;;;37.20;72.60;;;;;;1673451;29;20221;-73
2023/01/07 10:23:53;;;;;;;4.35;4.03;;;37.30;72.50;;;;;;1673290;29;20206;-73
2023/01/07 10:24:47;;;;;;;4.30;3.90;;;37.40;71.00;;;;;;1673448;29;20339;-73
2023/01/07 10:25:43;;;;;;;3.70;3.42;;;37.20;70.50;;;;;;1673439;29;20692;-74
2023/01/07 10:26:37;;;;;;;4.20;3.83;;;36.90;70.40;;;;;;1673542;29;20194;-74
2023/01/07 10:27:33;;;;;;;4.10;3.80;;;36.70;70.60;;;;;;1673455;29;20210;-73
2023/01/07 10:28:29;;;;;;;4.38;4.07;;;36.60;71.30;;;;;;1673475;29;20198;-73
2023/01/07 10:29:28;;;;;;;7.38;3.95;;;36.70;71.10;;;;;;1672809;29;20277;-73
2023/01/07 10:30:24;;;;;;;3.95;3.65;;;36.80;70.80;;;;;;1673342;29;20198;-73
2023/01/07 10:31:18;;;;;;;3.95;3.65;;;37.20;70.80;;;;;;1673523;29;20194;-73
2023/01/07 10:32:14;;;;;;;4.70;4.30;;;37.70;70.60;;;;;;1673352;29;20210;-73
2023/01/07 10:33:16;;;;;;;4.68;4.38;;;38.00;69.20;;;;;;1673570;29;20198;-73
2023/01/07 10:34:14;;;;;;;4.38;4.07;;;38.30;68.70;;;;;;1673437;29;20206;-73
2023/01/07 10:35:16;;;;;;;5.07;4.43;;;38.50;67.80;;;;;;1673309;29;20204;-74